sensor_id;sensor_type;location;lat;lon;timestamp;pressure;altitude;pressure_sealevel;temperature;humidity
27358;BME280;14831;50.474;7.616;2023-02-03T00:01:58;99090;;;5.4;94.1
27358;BME280;14831;50.474;7.616;2023-02-03T00:06:58;99090;;;5.4;94.2
27358;BME280;14831;50.474;7.616;2023-02-03T00:11:58;99070;;;5.5;94.2
27358;BME280;14831;50.474;7.616;2023-02-03T00:17:00;99080;;;5.5;94.2
27358;BME280;14831;50.474;7.616;2023-02-03T00:21:58;99080;;;5.5;94.1
27358;BME280;14831;50.474;7.616;2023-02-03T00:26:58;99080;;;5.5;94.2
27358;BME280;14831;50.474;7.616;2023-02-03T00:31:58;99070;;;5.6;94.0
27358;BME280;14831;50.474;7.616;2023-02-03T00:36:58;99050;;;5.6;94.0
27358;BME280;14831;50.474;7.616;2023-02-03T00:41:58;99020;;;5.6;93.7
27358;BME280;14831;50.474;7.616;2023-02-03T00:46:58;99000;;;5.7;93.7
27358;BME280;14831;50.474;7.616;2023-02-03T00:51:58;99010;;;5.7;93.6
27358;BME280;14831;50.474;7.616;2023-02-03T00:56:58;99010;;;5.7;93.6
27358;BME280;14831;50.474;7.616;2023-02-03T01:01:58;99000;;;5.7;93.7
27358;BME280;14831;50.474;7.616;2023-02-03T01:06:58;99000;;;5.7;93.9
27358;BME280;14831;50.474;7.616;2023-02-03T01:11:58;99000;;;5.7;94.4
27358;BME280;14831;50.474;7.616;2023-02-03T01:16:59;99000;;;5.6;94.8
27358;BME280;14831;50.474;7.616;2023-02-03T01:21:58;99000;;;5.6;95.3
27358;BME280;14831;50.474;7.616;2023-02-03T01:26:58;98990;;;5.6;95.2
27358;BME280;14831;50.474;7.616;2023-02-03T01:31:58;98980;;;5.6;95.0
27358;BME280;14831;50.474;7.616;2023-02-03T01:36:58;98990;;;5.6;94.9
27358;BME280;14831;50.474;7.616;2023-02-03T01:41:58;98980;;;5.7;94.2
27358;BME280;14831;50.474;7.616;2023-02-03T01:46:58;98970;;;5.7;94.0
27358;BME280;14831;50.474;7.616;2023-02-03T01:51:58;98980;;;5.7;93.7
27358;BME280;14831;50.474;7.616;2023-02-03T01:56:59;98970;;;5.7;93.8
27358;BME280;14831;50.474;7.616;2023-02-03T02:01:58;99000;;;5.7;93.8
27358;BME280;14831;50.474;7.616;2023-02-03T02:06:58;99010;;;5.6;93.9
27358;BME280;14831;50.474;7.616;2023-02-03T02:11:58;99000;;;5.6;93.7
27358;BME280;14831;50.474;7.616;2023-02-03T02:17:00;99000;;;5.7;93.5
27358;BME280;14831;50.474;7.616;2023-02-03T02:22:00;99000;;;5.7;93.3
27358;BME280;14831;50.474;7.616;2023-02-03T02:27:01;99000;;;5.7;93.0
27358;BME280;14831;50.474;7.616;2023-02-03T02:31:59;99010;;;5.7;93.0
27358;BME280;14831;50.474;7.616;2023-02-03T02:37:00;99020;;;5.7;92.8
27358;BME280;14831;50.474;7.616;2023-02-03T02:41:59;99010;;;5.7;92.6
27358;BME280;14831;50.474;7.616;2023-02-03T02:46:59;99000;;;5.8;92.1
27358;BME280;14831;50.474;7.616;2023-02-03T02:51:59;98990;;;5.8;91.9
27358;BME280;14831;50.474;7.616;2023-02-03T02:56:59;99000;;;5.8;91.9
27358;BME280;14831;50.474;7.616;2023-02-03T03:01:58;99000;;;5.8;91.6
27358;BME280;14831;50.474;7.616;2023-02-03T03:06:59;98990;;;5.9;91.0
27358;BME280;14831;50.474;7.616;2023-02-03T03:11:59;98980;;;5.9;90.6
27358;BME280;14831;50.474;7.616;2023-02-03T03:16:59;98960;;;6.1;89.0
27358;BME280;14831;50.474;7.616;2023-02-03T03:21:59;98950;;;6.2;87.3
27358;BME280;14831;50.474;7.616;2023-02-03T03:27:00;98960;;;6.4;85.6
27358;BME280;14831;50.474;7.616;2023-02-03T03:31:58;98980;;;6.3;86.3
27358;BME280;14831;50.474;7.616;2023-02-03T03:37:00;99000;;;6.2;87.4
27358;BME280;14831;50.474;7.616;2023-02-03T03:41:59;98980;;;6.1;88.9
27358;BME280;14831;50.474;7.616;2023-02-03T03:47:00;98960;;;6.1;89.4
27358;BME280;14831;50.474;7.616;2023-02-03T03:51:59;98950;;;6.1;89.6
27358;BME280;14831;50.474;7.616;2023-02-03T03:56:59;98970;;;6.1;89.7
27358;BME280;14831;50.474;7.616;2023-02-03T04:01:58;98970;;;6.1;89.9
27358;BME280;14831;50.474;7.616;2023-02-03T04:06:58;98960;;;6.1;90.1
27358;BME280;14831;50.474;7.616;2023-02-03T04:11:58;98970;;;6.0;90.6
27358;BME280;14831;50.474;7.616;2023-02-03T04:16:58;98970;;;6.0;90.7
27358;BME280;14831;50.474;7.616;2023-02-03T04:21:58;98970;;;6.0;90.8
27358;BME280;14831;50.474;7.616;2023-02-03T04:26:58;98970;;;6.0;91.1
27358;BME280;14831;50.474;7.616;2023-02-03T04:31:58;98970;;;6.0;91.2
27358;BME280;14831;50.474;7.616;2023-02-03T04:36:58;98980;;;6.0;90.9
27358;BME280;14831;50.474;7.616;2023-02-03T04:41:58;99000;;;6.1;90.2
27358;BME280;14831;50.474;7.616;2023-02-03T04:46:58;98970;;;6.1;89.9
27358;BME280;14831;50.474;7.616;2023-02-03T04:51:58;98950;;;6.1;89.6
27358;BME280;14831;50.474;7.616;2023-02-03T04:56:58;98970;;;6.1;89.3
27358;BME280;14831;50.474;7.616;2023-02-03T05:02:00;98960;;;6.1;88.7
27358;BME280;14831;50.474;7.616;2023-02-03T05:06:58;98960;;;6.2;87.0
27358;BME280;14831;50.474;7.616;2023-02-03T05:11:58;98950;;;6.2;87.3
27358;BME280;14831;50.474;7.616;2023-02-03T05:16:58;98950;;;6.2;87.1
27358;BME280;14831;50.474;7.616;2023-02-03T05:21:58;98950;;;6.3;86.1
27358;BME280;14831;50.474;7.616;2023-02-03T05:26:58;98970;;;6.3;86.3
27358;BME280;14831;50.474;7.616;2023-02-03T05:31:58;98940;;;6.3;85.9
27358;BME280;14831;50.474;7.616;2023-02-03T05:36:58;98950;;;6.3;86.0
27358;BME280;14831;50.474;7.616;2023-02-03T05:41:58;98950;;;6.3;85.5
27358;BME280;14831;50.474;7.616;2023-02-03T05:46:58;98950;;;6.3;85.6
27358;BME280;14831;50.474;7.616;2023-02-03T05:51:58;98940;;;6.3;85.3
27358;BME280;14831;50.474;7.616;2023-02-03T05:56:58;98930;;;6.3;85.3
27358;BME280;14831;50.474;7.616;2023-02-03T06:01:58;98950;;;6.3;85.0
27358;BME280;14831;50.474;7.616;2023-02-03T06:06:58;98940;;;6.3;84.8
27358;BME280;14831;50.474;7.616;2023-02-03T06:11:58;98950;;;6.3;84.9
27358;BME280;14831;50.474;7.616;2023-02-03T06:16:58;98950;;;6.3;85.0
27358;BME280;14831;50.474;7.616;2023-02-03T06:21:58;98950;;;6.3;84.6
27358;BME280;14831;50.474;7.616;2023-02-03T06:26:58;98960;;;6.3;84.3
27358;BME280;14831;50.474;7.616;2023-02-03T06:31:58;98960;;;6.4;83.3
27358;BME280;14831;50.474;7.616;2023-02-03T06:36:58;98970;;;6.4;83.6
27358;BME280;14831;50.474;7.616;2023-02-03T06:41:58;98970;;;6.4;83.4
27358;BME280;14831;50.474;7.616;2023-02-03T06:46:58;98970;;;6.4;83.1
27358;BME280;14831;50.474;7.616;2023-02-03T06:51:58;98970;;;6.5;82.4
27358;BME280;14831;50.474;7.616;2023-02-03T06:56:58;98970;;;6.5;82.4
27358;BME280;14831;50.474;7.616;2023-02-03T07:01:58;98960;;;6.5;81.8
27358;BME280;14831;50.474;7.616;2023-02-03T07:06:58;98960;;;6.5;81.6
27358;BME280;14831;50.474;7.616;2023-02-03T07:11:58;98970;;;6.6;81.3
27358;BME280;14831;50.474;7.616;2023-02-03T07:16:58;98960;;;6.6;79.9
27358;BME280;14831;50.474;7.616;2023-02-03T07:21:58;98950;;;6.7;80.4
27358;BME280;14831;50.474;7.616;2023-02-03T07:26:58;98950;;;6.7;80.3
27358;BME280;14831;50.474;7.616;2023-02-03T07:31:58;98940;;;6.8;78.6
27358;BME280;14831;50.474;7.616;2023-02-03T07:36:58;98960;;;6.8;79.3
27358;BME280;14831;50.474;7.616;2023-02-03T07:41:58;98960;;;6.9;78.2
27358;BME280;14831;50.474;7.616;2023-02-03T07:46:58;98980;;;7.0;77.3
27358;BME280;14831;50.474;7.616;2023-02-03T07:51:58;98990;;;7.1;76.8
27358;BME280;14831;50.474;7.616;2023-02-03T07:56:58;98960;;;7.1;76.4
27358;BME280;14831;50.474;7.616;2023-02-03T08:01:58;98980;;;7.1;76.3
27358;BME280;14831;50.474;7.616;2023-02-03T08:06:58;98990;;;7.1;76.6
27358;BME280;14831;50.474;7.616;2023-02-03T08:11:58;99000;;;7.2;75.7
27358;BME280;14831;50.474;7.616;2023-02-03T08:16:58;99000;;;7.1;76.3
27358;BME280;14831;50.474;7.616;2023-02-03T08:21:58;99000;;;7.2;75.8
27358;BME280;14831;50.474;7.616;2023-02-03T08:26:59;99000;;;7.2;76.2
27358;BME280;14831;50.474;7.616;2023-02-03T08:31:58;98990;;;7.2;75.3
27358;BME280;14831;50.474;7.616;2023-02-03T08:36:58;99000;;;7.3;76.0
27358;BME280;14831;50.474;7.616;2023-02-03T08:41:58;98990;;;7.2;76.9
27358;BME280;14831;50.474;7.616;2023-02-03T08:46:58;98990;;;7.2;76.7
27358;BME280;14831;50.474;7.616;2023-02-03T08:51:58;98990;;;7.2;77.0
27358;BME280;14831;50.474;7.616;2023-02-03T08:56:58;98980;;;7.2;76.5
27358;BME280;14831;50.474;7.616;2023-02-03T09:01:58;98990;;;7.2;77.3
27358;BME280;14831;50.474;7.616;2023-02-03T09:06:59;99000;;;7.2;78.0
27358;BME280;14831;50.474;7.616;2023-02-03T09:11:58;98990;;;7.3;77.2
27358;BME280;14831;50.474;7.616;2023-02-03T09:16:58;99000;;;7.4;77.0
27358;BME280;14831;50.474;7.616;2023-02-03T09:21:58;99010;;;7.4;77.2
27358;BME280;14831;50.474;7.616;2023-02-03T09:26:58;98990;;;7.5;77.9
27358;BME280;14831;50.474;7.616;2023-02-03T09:31:58;98980;;;7.5;77.2
27358;BME280;14831;50.474;7.616;2023-02-03T09:36:58;98990;;;7.6;76.9
27358;BME280;14831;50.474;7.616;2023-02-03T09:42:03;98980;;;7.6;78.5
27358;BME280;14831;50.474;7.616;2023-02-03T09:46:59;98980;;;7.6;78.5
27358;BME280;14831;50.474;7.616;2023-02-03T09:52:00;98990;;;7.6;78.2
27358;BME280;14831;50.474;7.616;2023-02-03T09:56:58;98980;;;7.6;79.5
27358;BME280;14831;50.474;7.616;2023-02-03T10:02:01;98980;;;7.5;81.5
27358;BME280;14831;50.474;7.616;2023-02-03T10:07:01;98980;;;7.3;83.3
27358;BME280;14831;50.474;7.616;2023-02-03T10:12:05;98980;;;7.2;85.2
27358;BME280;14831;50.474;7.616;2023-02-03T10:17:02;98980;;;7.0;88.4
27358;BME280;14831;50.474;7.616;2023-02-03T10:21:59;98980;;;7.0;88.6
27358;BME280;14831;50.474;7.616;2023-02-03T10:26:58;98990;;;6.9;90.4
27358;BME280;14831;50.474;7.616;2023-02-03T10:31:58;99020;;;6.8;91.7
27358;BME280;14831;50.474;7.616;2023-02-03T10:37:00;99010;;;6.7;93.0
27358;BME280;14831;50.474;7.616;2023-02-03T10:41:58;99020;;;6.6;93.6
27358;BME280;14831;50.474;7.616;2023-02-03T10:46:58;99020;;;6.6;94.4
27358;BME280;14831;50.474;7.616;2023-02-03T10:51:59;99030;;;6.5;94.6
27358;BME280;14831;50.474;7.616;2023-02-03T10:57:02;99020;;;6.6;95.0
27358;BME280;14831;50.474;7.616;2023-02-03T11:01:58;99020;;;6.5;95.2
27358;BME280;14831;50.474;7.616;2023-02-03T11:07:00;99000;;;6.5;95.7
27358;BME280;14831;50.474;7.616;2023-02-03T11:12:04;98990;;;6.5;95.5
27358;BME280;14831;50.474;7.616;2023-02-03T11:17:00;98980;;;6.6;95.8
27358;BME280;14831;50.474;7.616;2023-02-03T11:21:58;98970;;;6.6;95.7
27358;BME280;14831;50.474;7.616;2023-02-03T11:27:00;98970;;;6.6;95.7
27358;BME280;14831;50.474;7.616;2023-02-03T11:31:59;98950;;;6.6;96.0
27358;BME280;14831;50.474;7.616;2023-02-03T11:37:01;98960;;;6.6;96.1
27358;BME280;14831;50.474;7.616;2023-02-03T11:41:58;98950;;;6.6;96.1
27358;BME280;14831;50.474;7.616;2023-02-03T11:46:59;98960;;;6.6;96.1
27358;BME280;14831;50.474;7.616;2023-02-03T11:52:00;98950;;;6.7;96.0
27358;BME280;14831;50.474;7.616;2023-02-03T11:57:04;98950;;;6.7;95.7
27358;BME280;14831;50.474;7.616;2023-02-03T12:02:02;98940;;;6.8;94.6
27358;BME280;14831;50.474;7.616;2023-02-03T12:07:02;98960;;;6.9;94.6
27358;BME280;14831;50.474;7.616;2023-02-03T12:12:11;98950;;;6.9;94.3
27358;BME280;14831;50.474;7.616;2023-02-03T12:17:04;98950;;;7.0;93.7
27358;BME280;14831;50.474;7.616;2023-02-03T12:22:00;98950;;;7.1;92.8
27358;BME280;14831;50.474;7.616;2023-02-03T12:27:02;98960;;;7.1;92.6
27358;BME280;14831;50.474;7.616;2023-02-03T12:32:02;98960;;;7.3;91.6
27358;BME280;14831;50.474;7.616;2023-02-03T12:37:01;98940;;;7.3;91.1
27358;BME280;14831;50.474;7.616;2023-02-03T12:41:59;98940;;;7.4;90.2
27358;BME280;14831;50.474;7.616;2023-02-03T12:47:00;98930;;;7.6;88.7
27358;BME280;14831;50.474;7.616;2023-02-03T12:51:59;98930;;;7.6;89.1
27358;BME280;14831;50.474;7.616;2023-02-03T12:56:59;98930;;;7.6;90.2
27358;BME280;14831;50.474;7.616;2023-02-03T13:01:59;98920;;;7.5;90.9
27358;BME280;14831;50.474;7.616;2023-02-03T13:07:00;98950;;;7.5;91.3
27358;BME280;14831;50.474;7.616;2023-02-03T13:12:00;98930;;;7.5;91.2
27358;BME280;14831;50.474;7.616;2023-02-03T13:16:59;98930;;;7.5;91.1
27358;BME280;14831;50.474;7.616;2023-02-03T13:21:58;98920;;;7.6;90.5
27358;BME280;14831;50.474;7.616;2023-02-03T13:27:02;98940;;;7.6;90.4
27358;BME280;14831;50.474;7.616;2023-02-03T13:32:01;98930;;;7.6;90.8
27358;BME280;14831;50.474;7.616;2023-02-03T13:37:20;98930;;;7.5;91.1
27358;BME280;14831;50.474;7.616;2023-02-03T13:42:07;98960;;;7.6;90.7
27358;BME280;14831;50.474;7.616;2023-02-03T13:46:58;98940;;;7.6;91.3
27358;BME280;14831;50.474;7.616;2023-02-03T13:51:58;98930;;;7.7;90.2
27358;BME280;14831;50.474;7.616;2023-02-03T13:56:58;98930;;;7.7;89.9
27358;BME280;14831;50.474;7.616;2023-02-03T14:03:02;98940;;;7.7;90.4
27358;BME280;14831;50.474;7.616;2023-02-03T14:06:59;98910;;;7.7;90.5
27358;BME280;14831;50.474;7.616;2023-02-03T14:12:11;98940;;;7.7;90.3
27358;BME280;14831;50.474;7.616;2023-02-03T14:16:58;98940;;;7.7;90.7
27358;BME280;14831;50.474;7.616;2023-02-03T14:21:59;98960;;;7.8;89.9
27358;BME280;14831;50.474;7.616;2023-02-03T14:26:58;98950;;;7.7;90.5
27358;BME280;14831;50.474;7.616;2023-02-03T14:31:59;98950;;;7.7;90.9
27358;BME280;14831;50.474;7.616;2023-02-03T14:37:08;98960;;;7.7;91.5
27358;BME280;14831;50.474;7.616;2023-02-03T14:42:00;98950;;;7.6;91.7
27358;BME280;14831;50.474;7.616;2023-02-03T14:47:02;98940;;;7.6;92.3
27358;BME280;14831;50.474;7.616;2023-02-03T14:52:03;98950;;;7.6;92.7
27358;BME280;14831;50.474;7.616;2023-02-03T14:57:03;98970;;;7.6;92.8
27358;BME280;14831;50.474;7.616;2023-02-03T15:02:15;98980;;;7.5;92.9
27358;BME280;14831;50.474;7.616;2023-02-03T15:06:58;98970;;;7.5;93.0
27358;BME280;14831;50.474;7.616;2023-02-03T15:11:58;98980;;;7.6;92.4
27358;BME280;14831;50.474;7.616;2023-02-03T15:16:59;98970;;;7.6;92.7
27358;BME280;14831;50.474;7.616;2023-02-03T15:21:58;98940;;;7.6;92.1
27358;BME280;14831;50.474;7.616;2023-02-03T15:26:58;98940;;;7.6;92.4
27358;BME280;14831;50.474;7.616;2023-02-03T15:32:00;98970;;;7.6;92.6
27358;BME280;14831;50.474;7.616;2023-02-03T15:36:59;98980;;;7.5;92.5
27358;BME280;14831;50.474;7.616;2023-02-03T15:41:58;98990;;;7.5;93.5
27358;BME280;14831;50.474;7.616;2023-02-03T15:46:58;98990;;;7.5;93.1
27358;BME280;14831;50.474;7.616;2023-02-03T15:51:59;98990;;;7.5;92.6
27358;BME280;14831;50.474;7.616;2023-02-03T15:56:59;99000;;;7.5;92.9
27358;BME280;14831;50.474;7.616;2023-02-03T16:01:58;99020;;;7.4;93.7
27358;BME280;14831;50.474;7.616;2023-02-03T16:06:58;99020;;;7.4;93.9
27358;BME280;14831;50.474;7.616;2023-02-03T16:12:02;99020;;;7.4;93.3
27358;BME280;14831;50.474;7.616;2023-02-03T16:16:58;99030;;;7.5;92.9
27358;BME280;14831;50.474;7.616;2023-02-03T16:21:58;99010;;;7.5;92.6
27358;BME280;14831;50.474;7.616;2023-02-03T16:27:18;99020;;;7.5;92.1
27358;BME280;14831;50.474;7.616;2023-02-03T16:31:58;99020;;;7.5;91.1
27358;BME280;14831;50.474;7.616;2023-02-03T16:36:58;99020;;;7.6;90.5
27358;BME280;14831;50.474;7.616;2023-02-03T16:41:58;99020;;;7.6;90.5
27358;BME280;14831;50.474;7.616;2023-02-03T16:46:58;99030;;;7.6;89.7
27358;BME280;14831;50.474;7.616;2023-02-03T16:51:58;99030;;;7.7;89.2
27358;BME280;14831;50.474;7.616;2023-02-03T16:56:58;99030;;;7.6;89.5
27358;BME280;14831;50.474;7.616;2023-02-03T17:01:58;99030;;;7.7;88.9
27358;BME280;14831;50.474;7.616;2023-02-03T17:06:58;99030;;;7.7;88.8
27358;BME280;14831;50.474;7.616;2023-02-03T17:11:58;99030;;;7.6;89.5
27358;BME280;14831;50.474;7.616;2023-02-03T17:16:58;99050;;;7.7;89.1
27358;BME280;14831;50.474;7.616;2023-02-03T17:21:58;99050;;;7.7;89.3
27358;BME280;14831;50.474;7.616;2023-02-03T17:26:58;99070;;;7.6;90.7
27358;BME280;14831;50.474;7.616;2023-02-03T17:31:58;99080;;;7.5;91.0
27358;BME280;14831;50.474;7.616;2023-02-03T17:36:58;99090;;;7.4;92.8
27358;BME280;14831;50.474;7.616;2023-02-03T17:41:58;99100;;;7.3;94.0
27358;BME280;14831;50.474;7.616;2023-02-03T17:46:58;99090;;;7.0;93.3
27358;BME280;14831;50.474;7.616;2023-02-03T17:51:58;99110;;;6.9;95.2
27358;BME280;14831;50.474;7.616;2023-02-03T17:56:58;99120;;;6.8;95.5
27358;BME280;14831;50.474;7.616;2023-02-03T18:01:58;99110;;;6.9;93.6
27358;BME280;14831;50.474;7.616;2023-02-03T18:06:58;99110;;;6.8;92.3
27358;BME280;14831;50.474;7.616;2023-02-03T18:11:58;99120;;;6.8;89.3
27358;BME280;14831;50.474;7.616;2023-02-03T18:16:58;99120;;;6.8;88.4
27358;BME280;14831;50.474;7.616;2023-02-03T18:21:58;99120;;;6.8;88.2
27358;BME280;14831;50.474;7.616;2023-02-03T18:26:58;99130;;;6.8;87.8
27358;BME280;14831;50.474;7.616;2023-02-03T18:31:58;99130;;;6.8;86.8
27358;BME280;14831;50.474;7.616;2023-02-03T18:36:58;99150;;;6.9;85.1
27358;BME280;14831;50.474;7.616;2023-02-03T18:41:58;99150;;;6.8;85.2
27358;BME280;14831;50.474;7.616;2023-02-03T18:46:58;99170;;;6.8;85.7
27358;BME280;14831;50.474;7.616;2023-02-03T18:51:58;99170;;;6.8;85.3
27358;BME280;14831;50.474;7.616;2023-02-03T18:56:58;99180;;;6.7;85.3
27358;BME280;14831;50.474;7.616;2023-02-03T19:01:58;99180;;;6.7;85.1
27358;BME280;14831;50.474;7.616;2023-02-03T19:06:58;99190;;;6.7;84.9
27358;BME280;14831;50.474;7.616;2023-02-03T19:11:58;99190;;;6.7;85.8
27358;BME280;14831;50.474;7.616;2023-02-03T19:16:58;99210;;;6.8;84.4
27358;BME280;14831;50.474;7.616;2023-02-03T19:21:58;99210;;;6.7;85.1
27358;BME280;14831;50.474;7.616;2023-02-03T19:26:58;99220;;;6.6;86.0
27358;BME280;14831;50.474;7.616;2023-02-03T19:31:58;99220;;;6.7;84.0
27358;BME280;14831;50.474;7.616;2023-02-03T19:36:58;99220;;;6.7;83.6
27358;BME280;14831;50.474;7.616;2023-02-03T19:41:59;99240;;;6.7;83.7
27358;BME280;14831;50.474;7.616;2023-02-03T19:46:58;99240;;;6.8;82.4
27358;BME280;14831;50.474;7.616;2023-02-03T19:51:58;99240;;;6.7;82.6
27358;BME280;14831;50.474;7.616;2023-02-03T19:56:58;99250;;;6.8;81.3
27358;BME280;14831;50.474;7.616;2023-02-03T20:01:58;99230;;;6.7;81.3
27358;BME280;14831;50.474;7.616;2023-02-03T20:06:58;99220;;;6.6;82.6
27358;BME280;14831;50.474;7.616;2023-02-03T20:11:58;99220;;;6.7;83.1
27358;BME280;14831;50.474;7.616;2023-02-03T20:16:58;99230;;;6.8;83.2
27358;BME280;14831;50.474;7.616;2023-02-03T20:21:58;99220;;;6.8;84.4
27358;BME280;14831;50.474;7.616;2023-02-03T20:26:58;99240;;;6.9;83.1
27358;BME280;14831;50.474;7.616;2023-02-03T20:31:58;99230;;;6.9;83.9
27358;BME280;14831;50.474;7.616;2023-02-03T20:36:58;99260;;;6.9;84.2
27358;BME280;14831;50.474;7.616;2023-02-03T20:41:58;99240;;;6.8;84.0
27358;BME280;14831;50.474;7.616;2023-02-03T20:46:58;99250;;;6.9;83.4
27358;BME280;14831;50.474;7.616;2023-02-03T20:51:58;99250;;;6.9;82.2
27358;BME280;14831;50.474;7.616;2023-02-03T20:56:58;99260;;;6.9;82.0
27358;BME280;14831;50.474;7.616;2023-02-03T21:01:58;99270;;;6.9;81.7
27358;BME280;14831;50.474;7.616;2023-02-03T21:06:58;99260;;;7.0;81.2
27358;BME280;14831;50.474;7.616;2023-02-03T21:11:58;99260;;;7.0;81.0
27358;BME280;14831;50.474;7.616;2023-02-03T21:16:58;99280;;;7.0;81.0
27358;BME280;14831;50.474;7.616;2023-02-03T21:21:58;99280;;;7.0;81.4
27358;BME280;14831;50.474;7.616;2023-02-03T21:26:59;99280;;;7.0;80.3
27358;BME280;14831;50.474;7.616;2023-02-03T21:31:58;99280;;;6.9;80.8
27358;BME280;14831;50.474;7.616;2023-02-03T21:37:00;99280;;;7.0;81.0
27358;BME280;14831;50.474;7.616;2023-02-03T21:41:59;99290;;;6.9;80.4
27358;BME280;14831;50.474;7.616;2023-02-03T21:46:59;99290;;;6.8;81.7
27358;BME280;14831;50.474;7.616;2023-02-03T21:51:58;99300;;;6.8;81.8
27358;BME280;14831;50.474;7.616;2023-02-03T21:56:58;99320;;;7.0;79.1
27358;BME280;14831;50.474;7.616;2023-02-03T22:01:58;99320;;;6.9;80.8
27358;BME280;14831;50.474;7.616;2023-02-03T22:06:58;99310;;;6.8;80.0
27358;BME280;14831;50.474;7.616;2023-02-03T22:11:58;99320;;;6.8;79.5
27358;BME280;14831;50.474;7.616;2023-02-03T22:16:58;99320;;;6.8;79.2
27358;BME280;14831;50.474;7.616;2023-02-03T22:21:58;99310;;;6.7;79.3
27358;BME280;14831;50.474;7.616;2023-02-03T22:26:58;99340;;;6.6;80.0
27358;BME280;14831;50.474;7.616;2023-02-03T22:31:58;99350;;;6.6;78.1
27358;BME280;14831;50.474;7.616;2023-02-03T22:36:58;99340;;;6.5;79.2
27358;BME280;14831;50.474;7.616;2023-02-03T22:41:58;99370;;;6.5;78.5
27358;BME280;14831;50.474;7.616;2023-02-03T22:46:58;99360;;;6.5;77.9
27358;BME280;14831;50.474;7.616;2023-02-03T22:51:58;99360;;;6.5;77.5
27358;BME280;14831;50.474;7.616;2023-02-03T22:56:58;99370;;;6.5;76.9
27358;BME280;14831;50.474;7.616;2023-02-03T23:01:58;99390;;;6.4;77.9
27358;BME280;14831;50.474;7.616;2023-02-03T23:06:58;99400;;;6.4;78.2
27358;BME280;14831;50.474;7.616;2023-02-03T23:11:58;99390;;;6.4;77.0
27358;BME280;14831;50.474;7.616;2023-02-03T23:16:58;99390;;;6.3;78.1
27358;BME280;14831;50.474;7.616;2023-02-03T23:21:58;99390;;;6.3;77.7
27358;BME280;14831;50.474;7.616;2023-02-03T23:26:58;99400;;;6.3;77.3
27358;BME280;14831;50.474;7.616;2023-02-03T23:31:58;99410;;;6.2;77.7
27358;BME280;14831;50.474;7.616;2023-02-03T23:36:58;99400;;;6.3;77.7
27358;BME280;14831;50.474;7.616;2023-02-03T23:41:58;99410;;;6.2;78.4
27358;BME280;14831;50.474;7.616;2023-02-03T23:46:58;99420;;;6.3;78.4
27358;BME280;14831;50.474;7.616;2023-02-03T23:51:58;99430;;;6.3;79.0
27358;BME280;14831;50.474;7.616;2023-02-03T23:56:58;99430;;;6.2;79.6
